Time;durP1;ratioP1;P1;durP2;ratioP2;P2;SDS_P1;SDS_P2;PMS_P1;PMS_P2;Temp;Humidity;BMP_temperature;BMP_pressure;BME280_temperature;BME280_humidity;BME280_pressure;Samples;Min_cycle;Max_cycle;Signal;HPM_P1;HPM_P2
2023/01/02 00:00:53;;;;;;;14.60;8.90;;;;;;;11.08;66.22;100603.36;100017;1289;108351;-69
2023/01/02 00:03:25;;;;;;;18.40;10.30;;;;;;;11.07;66.21;100600.23;100137;1289;96587;-69
2023/01/02 00:05:53;;;;;;;17.60;10.40;;;;;;;11.07;66.31;100599.55;99953;1288;138318;-69
2023/01/02 00:08:20;;;;;;;17.60;9.60;;;;;;;11.06;66.28;100599.77;100093;1288;107436;-70
2023/01/02 00:10:47;;;;;;;20.20;10.60;;;;;;;11.04;66.32;100592.85;99943;1289;138050;-70
2023/01/02 00:13:18;;;;;;;18.40;9.80;;;;;;;11.04;66.35;100587.31;100033;1288;107579;-70
2023/01/02 00:15:45;;;;;;;17.80;10.60;;;;;;;11.02;66.35;100582.48;99988;1296;137796;-70
2023/01/02 00:18:13;;;;;;;21.60;10.10;;;;;;;11.01;66.35;100574.17;100110;1290;110184;-70
2023/01/02 00:20:40;;;;;;;18.10;9.50;;;;;;;10.99;66.42;100567.98;100115;1289;106207;-70
2023/01/02 00:23:08;;;;;;;18.50;9.60;;;;;;;10.99;66.42;100577.02;100018;1288;138389;-70
2023/01/02 00:25:35;;;;;;;20.60;10.00;;;;;;;11.00;66.46;100579.40;100073;1294;107534;-70
2023/01/02 00:28:02;;;;;;;20.50;10.10;;;;;;;11.02;66.53;100584.56;99985;1296;139426;-70
2023/01/02 00:30:29;;;;;;;18.40;10.10;;;;;;;11.03;66.43;100587.33;100120;1281;110263;-70
2023/01/02 00:33:04;;;;;;;19.90;10.90;;;;;;;11.05;66.41;100585.02;100094;1281;107103;-70
2023/01/02 00:35:31;;;;;;;17.60;9.80;;;;;;;11.05;66.37;100584.98;100030;1296;138549;-69
2023/01/02 00:37:58;;;;;;;15.60;9.20;;;;;;;11.07;66.38;100587.55;100078;1289;107504;-70
2023/01/02 00:40:25;;;;;;;21.40;9.80;;;;;;;11.09;66.39;100586.44;99999;1290;138272;-70
2023/01/02 00:42:52;;;;;;;17.80;10.30;;;;;;;11.13;66.38;100587.72;100124;1288;108956;-70
2023/01/02 00:45:19;;;;;;;21.50;10.60;;;;;;;11.17;66.31;100590.42;100059;1290;106740;-70
2023/01/02 00:47:46;;;;;;;18.40;10.10;;;;;;;11.19;66.27;100592.45;100014;1289;139118;-70
2023/01/02 00:50:13;;;;;;;14.70;9.70;;;;;;;11.21;66.22;100595.16;100177;1294;107084;-70
2023/01/02 00:52:40;;;;;;;18.50;9.90;;;;;;;11.22;66.13;100593.56;99980;1288;137776;-70
2023/01/02 00:55:09;;;;;;;18.70;9.70;;;;;;;11.21;66.15;100596.73;100177;1288;109539;-70
2023/01/02 00:57:36;;;;;;;17.00;10.30;;;;;;;11.21;66.13;100601.77;100532;1296;106120;-70
2023/01/02 01:00:03;;;;;;;15.30;9.60;;;;;;;11.20;66.08;100598.50;100083;1289;96613;-70
2023/01/02 01:02:31;;;;;;;21.40;11.00;;;;;;;11.18;66.10;100603.27;100087;1296;107962;-70
2023/01/02 01:04:58;;;;;;;19.20;10.00;;;;;;;11.18;66.11;100606.38;99984;1291;138638;-70
2023/01/02 01:07:25;;;;;;;19.00;9.70;;;;;;;11.17;66.09;100606.25;100088;1288;109911;-70
2023/01/02 01:09:52;;;;;;;19.40;10.30;;;;;;;11.16;66.07;100605.59;99948;1296;138564;-70
2023/01/02 01:12:19;;;;;;;18.40;10.20;;;;;;;11.15;66.15;100606.30;100082;1294;97085;-69
2023/01/02 01:14:46;;;;;;;16.60;9.40;;;;;;;11.15;66.06;100598.15;100057;1288;107006;-69
2023/01/02 01:17:14;;;;;;;19.10;10.20;;;;;;;11.15;66.13;100599.86;99968;1282;137963;-69
2023/01/02 01:19:41;;;;;;;18.20;10.40;;;;;;;11.16;66.12;100598.11;100146;1275;109881;-70
2023/01/02 01:22:10;;;;;;;18.00;10.50;;;;;;;11.14;66.10;100599.72;99957;1292;138368;-70
2023/01/02 01:24:39;;;;;;;18.90;10.60;;;;;;;11.12;66.16;100593.85;100160;1296;96492;-70
2023/01/02 01:27:06;;;;;;;21.10;10.30;;;;;;;11.10;66.22;100593.55;100166;1291;107793;-71
2023/01/02 01:29:33;;;;;;;19.80;10.30;;;;;;;11.10;66.19;100588.69;100040;1289;138168;-70
2023/01/02 01:32:00;;;;;;;19.70;10.60;;;;;;;11.08;66.20;100585.95;100119;1291;107899;-71
2023/01/02 01:34:27;;;;;;;21.00;10.50;;;;;;;11.07;66.22;100585.13;99978;1294;137819;-68
2023/01/02 01:36:54;;;;;;;17.50;10.40;;;;;;;11.06;66.29;100586.20;100457;1291;96486;-71
2023/01/02 01:39:21;;;;;;;16.40;9.60;;;;;;;11.05;66.27;100581.35;100291;1289;108365;-71
2023/01/02 01:41:48;;;;;;;17.30;9.80;;;;;;;11.04;66.36;100572.15;99989;1289;139640;-71
2023/01/02 01:44:46;;;;;;;15.40;9.20;;;;;;;11.05;66.32;100568.30;100160;1288;110165;-70
2023/01/02 01:47:27;;;;;;;16.60;9.80;;;;;;;11.09;66.37;100571.31;99999;1295;137662;-70
2023/01/02 01:50:00;;;;;;;17.20;10.20;;;;;;;11.14;66.51;100567.52;100128;1287;96440;-70
2023/01/02 01:52:35;;;;;;;18.50;10.60;;;;;;;11.15;66.35;100565.95;99997;1281;137706;-70
2023/01/02 01:55:07;;;;;;;17.30;10.00;;;;;;;11.13;66.18;100564.07;100145;1291;96551;-70
2023/01/02 01:57:37;;;;;;;18.50;10.70;;;;;;;11.09;66.25;100549.38;100162;1288;110409;-71
2023/01/02 02:00:07;;;;;;;17.80;10.40;;;;;;;11.06;66.30;100547.20;100156;1290;107407;-69
2023/01/02 02:02:36;;;;;;;20.80;10.60;;;;;;;11.03;66.42;100541.23;101634;1289;94592;-70
2023/01/02 02:05:06;;;;;;;14.80;8.80;;;;;;;10.97;66.45;100537.40;99345;1288;1003490;-69
2023/01/02 02:07:35;;;;;;;17.00;9.80;;;;;;;10.91;66.41;100543.30;100156;1288;96500;-69
2023/01/02 02:10:07;;;;;;;17.10;9.70;;;;;;;10.85;66.60;100549.56;99338;1282;1003657;-70
2023/01/02 02:12:35;;;;;;;20.30;9.50;;;;;;;10.83;66.73;100547.00;99322;1290;1004373;-69
2023/01/02 02:15:02;;;;;;;15.50;9.70;;;;;;;10.81;66.82;100537.69;101622;1297;94316;-70
2023/01/02 02:17:40;;;;;;;20.20;9.90;;;;;;;10.80;66.84;100540.67;100874;1296;141538;-70
2023/01/02 02:20:27;;;;;;;17.20;9.70;;;;;;;10.77;66.93;100548.05;100100;1298;96459;-70
2023/01/02 02:23:24;;;;;;;20.30;10.10;;;;;;;10.76;67.02;100545.98;101262;1288;137894;-70
2023/01/02 02:26:11;;;;;;;16.50;10.10;;;;;;;10.74;67.11;100547.61;100090;1281;106890;-69
2023/01/02 02:29:07;;;;;;;17.80;10.00;;;;;;;10.71;67.16;100541.79;100037;1285;137872;-69
2023/01/02 02:31:43;;;;;;;21.20;11.10;;;;;;;10.68;67.24;100536.14;99635;1293;107350;-70
2023/01/02 02:34:20;;;;;;;20.30;10.60;;;;;;;10.65;67.30;100533.95;100452;1302;137856;-69
2023/01/02 02:36:56;;;;;;;18.80;10.30;;;;;;;10.63;67.38;100536.98;99608;1294;109302;-70
2023/01/02 02:39:31;;;;;;;19.80;10.50;;;;;;;10.62;67.41;100535.80;99622;1294;107730;-70
2023/01/02 02:42:06;;;;;;;17.90;10.30;;;;;;;10.61;67.47;100534.77;99584;1287;138289;-70
2023/01/02 02:44:41;;;;;;;16.10;10.10;;;;;;;10.61;67.55;100538.27;99745;1287;107589;-70
2023/01/02 02:47:13;;;;;;;21.10;10.50;;;;;;;10.61;67.47;100549.56;100236;1294;138872;-70
2023/01/02 02:49:49;;;;;;;17.00;10.10;;;;;;;10.59;67.52;100554.11;99714;1294;109474;-69
2023/01/02 02:52:22;;;;;;;17.80;10.80;;;;;;;10.57;67.52;100553.64;99622;1302;137866;-70
2023/01/02 02:54:56;;;;;;;18.70;11.00;;;;;;;10.55;67.60;100552.30;99710;1296;96662;-70
2023/01/02 02:57:25;;;;;;;19.10;10.80;;;;;;;10.53;67.73;100549.06;99707;1297;108275;-70
2023/01/02 02:59:52;;;;;;;18.30;10.60;;;;;;;10.51;67.80;100548.41;99488;1296;138027;-70
2023/01/02 03:02:20;;;;;;;17.50;10.50;;;;;;;10.49;67.80;100555.27;99701;1296;109888;-70
2023/01/02 03:04:51;;;;;;;16.60;10.60;;;;;;;10.46;67.89;100560.05;99562;1300;139510;-70
2023/01/02 03:07:26;;;;;;;17.50;10.80;;;;;;;10.43;67.97;100561.00;99701;1302;96671;-70
2023/01/02 03:10:15;;;;;;;21.00;10.90;;;;;;;10.38;68.02;100548.24;99769;1291;138373;-70
2023/01/02 03:12:54;;;;;;;18.10;10.80;;;;;;;10.33;68.22;100542.98;100063;1291;96483;-69
2023/01/02 03:15:25;;;;;;;16.70;10.40;;;;;;;10.26;68.27;100542.14;100084;1295;110764;-70
2023/01/02 03:18:09;;;;;;;19.60;11.00;;;;;;;10.21;68.45;100549.02;99980;1289;138966;-70
2023/01/02 03:20:40;;;;;;;18.30;11.00;;;;;;;10.17;68.54;100556.05;100136;1289;96469;-70
2023/01/02 03:23:15;;;;;;;20.20;11.10;;;;;;;10.14;68.64;100557.20;99985;1289;138364;-70
2023/01/02 03:25:44;;;;;;;18.90;10.90;;;;;;;10.10;68.73;100555.90;100179;1291;96468;-69
2023/01/02 03:28:13;;;;;;;20.10;11.30;;;;;;;10.09;68.89;100558.19;99981;1288;138372;-69
2023/01/02 03:30:42;;;;;;;17.10;10.30;;;;;;;10.07;68.97;100554.05;100105;1290;108228;-69
2023/01/02 03:33:14;;;;;;;19.90;11.00;;;;;;;10.08;69.04;100549.36;100127;1293;97199;-68
2023/01/02 03:35:45;;;;;;;18.50;10.80;;;;;;;10.07;69.10;100549.39;99242;1294;1003929;-69
2023/01/02 03:38:20;;;;;;;18.30;11.60;;;;;;;10.07;69.15;100544.36;100108;1281;96356;-69
2023/01/02 03:40:54;;;;;;;18.20;10.60;;;;;;;10.05;69.16;100538.11;100027;1289;138356;-70
2023/01/02 03:43:24;;;;;;;16.80;10.60;;;;;;;10.05;69.23;100542.11;100086;1296;107764;-70
2023/01/02 03:46:01;;;;;;;17.70;10.80;;;;;;;10.05;69.27;100549.92;100036;1289;139708;-71
2023/01/02 03:48:31;;;;;;;;;;;;;;;10.04;69.25;100549.44;100278;1288;108770;-70
2023/01/02 03:51:01;;;;;;;16.00;9.50;;;;;;;10.02;69.36;100554.54;100704;1281;96459;-69
2023/01/02 03:53:31;;;;;;;18.50;10.50;;;;;;;10.01;69.32;100555.26;99995;1281;138158;-69
2023/01/02 03:56:10;;;;;;;20.70;10.30;;;;;;;10.01;69.40;100547.95;99999;1289;106619;-70
2023/01/02 03:58:45;;;;;;;18.10;10.60;;;;;;;10.02;69.47;100546.89;101467;1296;138886;-70
2023/01/02 04:01:17;;;;;;;21.50;11.30;;;;;;;10.00;69.44;100551.79;100759;1288;107274;-70
2023/01/02 04:03:50;;;;;;;21.40;11.70;;;;;;;9.99;69.55;100553.04;99984;1288;138533;-70
2023/01/02 04:06:23;;;;;;;17.90;10.90;;;;;;;9.99;69.59;100552.70;100048;1281;109698;-70
2023/01/02 04:08:57;;;;;;;17.00;10.50;;;;;;;9.97;69.68;100557.95;100019;1287;107816;-70
2023/01/02 04:11:26;;;;;;;20.90;11.40;;;;;;;9.96;69.65;100557.30;99992;1291;140067;-70
2023/01/02 04:13:58;;;;;;;22.30;11.30;;;;;;;9.94;69.84;100557.35;100138;1294;108235;-69
2023/01/02 04:16:29;;;;;;;19.90;11.30;;;;;;;9.91;69.78;100559.16;99943;1288;139969;-70
2023/01/02 04:19:02;;;;;;;21.90;11.90;;;;;;;9.88;69.93;100568.96;99324;1289;1003054;-70
2023/01/02 04:21:34;;;;;;;18.90;11.30;;;;;;;9.86;69.95;100567.25;100182;1289;107211;-70
2023/01/02 04:24:07;;;;;;;19.90;11.10;;;;;;;9.84;69.98;100572.16;100009;1288;138318;-69
2023/01/02 04:26:39;;;;;;;22.00;11.40;;;;;;;9.82;70.07;100576.38;100142;1290;107507;-69
2023/01/02 04:29:06;;;;;;;21.50;11.40;;;;;;;9.81;70.18;100571.38;99981;1288;138280;-69
2023/01/02 04:31:42;;;;;;;18.80;11.30;;;;;;;9.81;70.29;100569.81;100124;1289;109272;-69
2023/01/02 04:34:14;;;;;;;18.60;10.90;;;;;;;9.82;70.30;100569.45;100026;1288;138451;-69
2023/01/02 04:36:42;;;;;;;20.10;11.40;;;;;;;9.82;70.38;100570.48;101149;1288;94065;-69
2023/01/02 04:39:10;;;;;;;21.30;11.50;;;;;;;9.83;70.41;100573.39;100054;1287;108124;-70
2023/01/02 04:41:39;;;;;;;19.50;10.90;;;;;;;9.84;70.47;100571.46;99961;1298;138315;-69
2023/01/02 04:44:06;;;;;;;19.50;11.90;;;;;;;9.85;70.57;100565.20;100082;1295;111090;-69
2023/01/02 04:46:33;;;;;;;23.60;11.60;;;;;;;9.85;70.70;100558.43;100037;1288;138294;-69
2023/01/02 04:49:00;;;;;;;18.50;11.50;;;;;;;9.83;70.83;100555.69;100161;1288;96975;-70
2023/01/02 04:51:27;;;;;;;20.50;11.90;;;;;;;9.80;70.91;100553.16;100032;1291;107373;-69
2023/01/02 04:53:54;;;;;;;17.60;11.60;;;;;;;9.73;71.13;100550.90;99959;1289;138113;-68
2023/01/02 04:56:22;;;;;;;20.80;11.20;;;;;;;9.66;71.23;100544.45;100057;1288;109563;-68
2023/01/02 04:58:49;;;;;;;20.10;11.70;;;;;;;9.60;71.38;100540.79;99968;1290;139423;-69
2023/01/02 05:01:18;;;;;;;21.60;13.00;;;;;;;9.55;71.51;100533.27;100066;1288;96494;-69
2023/01/02 05:03:48;;;;;;;21.40;11.90;;;;;;;9.50;71.82;100527.47;99985;1292;138390;-70
2023/01/02 05:06:16;;;;;;;21.40;11.10;;;;;;;9.46;71.98;100521.31;100082;1294;96341;-69
2023/01/02 05:08:43;;;;;;;22.30;11.30;;;;;;;9.43;72.13;100520.52;100110;1288;109483;-70
2023/01/02 05:11:12;;;;;;;19.20;11.40;;;;;;;9.40;72.38;100529.11;99940;1288;138170;-70
2023/01/02 05:13:40;;;;;;;21.30;11.30;;;;;;;9.39;72.50;100526.70;100112;1288;97149;-69
2023/01/02 05:16:09;;;;;;;19.30;11.40;;;;;;;9.37;72.45;100519.11;100022;1295;138398;-69
2023/01/02 05:18:36;;;;;;;22.20;11.30;;;;;;;9.37;72.63;100508.19;100578;1289;96473;-69
2023/01/02 05:21:04;;;;;;;18.00;10.80;;;;;;;9.40;72.71;100503.95;100110;1285;110132;-70
2023/01/02 05:23:50;;;;;;;17.50;10.10;;;;;;;9.42;72.95;100495.56;100816;1296;138952;-70
2023/01/02 05:26:18;;;;;;;17.60;9.70;;;;;;;9.43;73.01;100492.77;100116;1293;97062;-69
2023/01/02 05:28:46;;;;;;;16.50;9.60;;;;;;;9.44;73.05;100492.39;100000;1289;137518;-69
2023/01/02 05:31:13;;;;;;;19.00;10.20;;;;;;;9.44;72.82;100490.14;100151;1294;96464;-69
2023/01/02 05:33:40;;;;;;;17.80;10.80;;;;;;;9.45;73.02;100486.13;100171;1289;109677;-69
2023/01/02 05:36:09;;;;;;;16.10;10.30;;;;;;;9.44;73.00;100479.55;100151;1281;106689;-69
2023/01/02 05:38:38;;;;;;;22.50;11.20;;;;;;;9.41;72.96;100481.17;100096;1291;96473;-69
2023/01/02 05:41:07;;;;;;;18.10;10.70;;;;;;;9.37;73.16;100473.48;100002;1294;137438;-69
2023/01/02 05:43:36;;;;;;;17.30;10.70;;;;;;;9.34;73.20;100473.02;100138;1288;96489;-69
2023/01/02 05:46:10;;;;;;;17.60;10.30;;;;;;;9.30;73.33;100464.60;100072;1289;138570;-69
2023/01/02 05:48:38;;;;;;;22.70;10.80;;;;;;;9.27;73.35;100466.77;100451;1291;107946;-70
2023/01/02 05:51:06;;;;;;;21.60;10.90;;;;;;;9.24;73.46;100469.27;100124;1289;96975;-70
2023/01/02 05:53:33;;;;;;;18.80;11.30;;;;;;;9.21;73.57;100465.52;99993;1281;138642;-69
2023/01/02 05:56:07;;;;;;;20.90;11.10;;;;;;;9.17;73.80;100470.48;100123;1287;96494;-71
2023/01/02 05:58:38;;;;;;;18.40;10.60;;;;;;;9.12;73.91;100470.76;99945;1287;140492;-71
2023/01/02 06:01:10;;;;;;;20.20;10.80;;;;;;;9.06;73.92;100468.97;100088;1291;106945;-68
2023/01/02 06:03:37;;;;;;;21.10;10.40;;;;;;;9.01;74.13;100464.75;100166;1294;97062;-69
2023/01/02 06:06:06;;;;;;;17.10;10.30;;;;;;;8.96;74.24;100471.97;100100;1289;108815;-69
2023/01/02 06:08:33;;;;;;;19.10;10.40;;;;;;;8.90;74.07;100473.48;100177;1287;96466;-70
2023/01/02 06:11:01;;;;;;;17.80;10.30;;;;;;;8.86;74.29;100463.88;100064;1288;138108;-70
2023/01/02 06:13:29;;;;;;;18.60;10.10;;;;;;;8.81;74.33;100466.41;100117;1291;106000;-70
2023/01/02 06:15:57;;;;;;;17.90;10.70;;;;;;;8.76;74.47;100467.37;99994;1289;139209;-70
2023/01/02 06:18:25;;;;;;;21.90;10.90;;;;;;;8.71;74.53;100467.66;100066;1288;107589;-69
2023/01/02 06:20:52;;;;;;;17.30;10.70;;;;;;;8.67;74.66;100468.80;100039;1281;97009;-71
2023/01/02 06:23:19;;;;;;;22.40;11.20;;;;;;;8.63;74.60;100471.13;100095;1291;138203;-70
2023/01/02 06:25:46;;;;;;;18.50;10.60;;;;;;;8.59;74.82;100468.42;100133;1282;107632;-70
2023/01/02 06:28:13;;;;;;;21.90;11.30;;;;;;;8.55;74.92;100473.88;100028;1288;139021;-69
2023/01/02 06:30:40;;;;;;;19.00;10.90;;;;;;;8.50;75.02;100478.67;100078;1290;107570;-70
2023/01/02 06:33:08;;;;;;;20.60;10.70;;;;;;;8.44;75.26;100470.98;100116;1289;96585;-70
2023/01/02 06:35:34;;;;;;;19.90;10.50;;;;;;;8.39;75.27;100464.48;100491;1291;138087;-69
2023/01/02 06:38:01;;;;;;;20.80;11.40;;;;;;;8.35;75.31;100464.39;100094;1281;107086;-69
2023/01/02 06:40:29;;;;;;;22.10;11.80;;;;;;;8.32;75.49;100463.73;100473;1296;138220;-70
2023/01/02 06:42:56;;;;;;;19.60;11.10;;;;;;;8.28;75.76;100462.95;100321;1290;108451;-70
2023/01/02 06:45:26;;;;;;;19.40;10.40;;;;;;;8.24;75.75;100454.35;100123;1281;96363;-70
2023/01/02 06:47:59;;;;;;;17.30;10.40;;;;;;;8.21;76.14;100447.14;100013;1290;138214;-70
2023/01/02 06:50:26;;;;;;;18.50;10.30;;;;;;;8.16;76.44;100448.45;100073;1281;108270;-70
2023/01/02 06:53:00;;;;;;;21.60;11.20;;;;;;;8.13;76.48;100457.88;99294;1291;1003498;-69
2023/01/02 06:55:27;;;;;;;19.70;10.90;;;;;;;8.08;76.47;100464.71;100048;1291;108210;-71
2023/01/02 06:57:54;;;;;;;19.50;11.20;;;;;;;8.05;76.67;100472.20;99957;1289;140038;-71
2023/01/02 07:00:22;;;;;;;20.60;11.10;;;;;;;8.02;76.71;100470.52;100120;1291;109212;-70
2023/01/02 07:02:49;;;;;;;22.80;11.10;;;;;;;8.01;76.94;100464.84;100031;1282;106679;-70
2023/01/02 07:05:16;;;;;;;17.60;10.80;;;;;;;8.00;77.02;100465.55;100020;1290;139196;-70
2023/01/02 07:07:50;;;;;;;16.40;10.10;;;;;;;7.99;77.28;100461.60;100147;1290;106781;-71
2023/01/02 07:10:17;;;;;;;17.70;10.50;;;;;;;7.98;77.16;100462.30;99997;1298;138219;-71
2023/01/02 07:12:44;;;;;;;20.20;10.50;;;;;;;7.99;77.27;100464.20;100037;1287;109222;-71
2023/01/02 07:15:12;;;;;;;18.50;10.10;;;;;;;8.00;77.54;100454.64;100072;1287;107773;-70
2023/01/02 07:17:39;;;;;;;17.40;10.40;;;;;;;8.02;77.33;100446.10;99983;1291;138914;-70
2023/01/02 07:20:07;;;;;;;19.50;10.50;;;;;;;8.05;77.22;100434.63;100114;1294;107488;-70
2023/01/02 07:22:34;;;;;;;20.60;10.20;;;;;;;8.07;77.23;100432.67;100041;1290;139149;-71
2023/01/02 07:25:01;;;;;;;18.10;10.20;;;;;;;8.08;77.25;100432.50;100111;1295;110159;-71
2023/01/02 07:27:30;;;;;;;18.00;10.70;;;;;;;8.11;77.12;100439.38;100076;1294;107238;-71
2023/01/02 07:29:57;;;;;;;18.20;10.70;;;;;;;8.13;77.20;100441.59;100050;1285;138004;-71
2023/01/02 07:32:24;;;;;;;15.70;9.50;;;;;;;8.16;77.08;100443.25;100109;1296;108368;-71
2023/01/02 07:34:53;;;;;;;19.20;10.30;;;;;;;8.20;77.13;100442.48;100006;1281;137840;-72
2023/01/02 07:37:22;;;;;;;17.70;9.50;;;;;;;8.23;77.22;100435.15;100091;1291;111725;-71
2023/01/02 07:39:49;;;;;;;15.70;9.70;;;;;;;8.25;77.07;100429.21;99992;1281;138384;-71
2023/01/02 07:42:16;;;;;;;15.20;9.60;;;;;;;8.26;77.11;100425.40;100167;1291;96965;-69
2023/01/02 07:44:43;;;;;;;18.10;10.30;;;;;;;8.26;77.02;100426.44;100138;1294;108888;-70
2023/01/02 07:47:10;;;;;;;17.80;10.40;;;;;;;8.27;77.43;100421.77;99994;1298;138527;-71
2023/01/02 07:49:37;;;;;;;20.00;10.00;;;;;;;8.25;77.48;100419.69;100178;1291;110239;-70
2023/01/02 07:52:08;;;;;;;18.30;9.70;;;;;;;8.24;77.17;100421.63;100035;1290;138440;-71
2023/01/02 07:54:35;;;;;;;17.80;9.90;;;;;;;8.23;77.37;100420.41;100135;1281;96476;-71
2023/01/02 07:57:02;;;;;;;18.50;10.80;;;;;;;8.23;77.36;100419.91;100124;1291;107711;-70
2023/01/02 07:59:29;;;;;;;17.40;10.50;;;;;;;8.23;77.36;100412.45;99997;1294;138085;-71
2023/01/02 08:01:57;;;;;;;15.10;9.00;;;;;;;8.25;77.38;100410.68;100063;1289;108946;-70
2023/01/02 08:04:24;;;;;;;15.70;9.80;;;;;;;8.27;77.51;100411.35;99998;1291;139622;-71
2023/01/02 08:06:51;;;;;;;19.90;9.80;;;;;;;8.30;77.38;100409.22;100184;1288;97111;-70
2023/01/02 08:09:18;;;;;;;18.20;10.20;;;;;;;8.32;77.45;100409.34;100095;1291;108038;-70
2023/01/02 08:11:45;;;;;;;18.80;9.70;;;;;;;8.37;77.57;100415.67;99997;1291;138153;-71
2023/01/02 08:14:13;;;;;;;18.30;10.10;;;;;;;8.42;77.57;100416.79;100123;1291;109453;-70
2023/01/02 08:16:48;;;;;;;18.00;10.70;;;;;;;8.48;77.65;100418.05;99958;1296;138997;-70
2023/01/02 08:19:16;;;;;;;18.10;10.00;;;;;;;8.56;77.37;100420.66;101639;1296;94626;-71
2023/01/02 08:21:43;;;;;;;17.10;9.70;;;;;;;8.65;77.38;100424.45;101046;1288;107995;-71
2023/01/02 08:24:10;;;;;;;18.00;9.60;;;;;;;8.74;77.12;100421.13;99262;1288;1002489;-71
2023/01/02 08:26:38;;;;;;;16.40;10.20;;;;;;;8.83;76.89;100420.59;99387;1275;1003495;-71
2023/01/02 08:29:07;;;;;;;17.80;9.60;;;;;;;8.91;76.71;100422.82;99947;1294;138470;-71
2023/01/02 08:31:35;;;;;;;17.10;9.00;;;;;;;8.97;76.42;100426.85;100108;1281;96966;-70
2023/01/02 08:34:13;;;;;;;17.70;9.70;;;;;;;9.02;76.28;100430.04;99959;1294;138107;-70
2023/01/02 08:36:40;;;;;;;18.30;9.80;;;;;;;9.08;76.10;100428.16;100028;1289;96988;-69
2023/01/02 08:39:07;;;;;;;18.40;9.60;;;;;;;9.14;75.96;100428.02;100157;1296;109127;-72
2023/01/02 08:41:36;;;;;;;14.70;9.50;;;;;;;9.20;75.88;100431.03;100009;1287;138218;-71
2023/01/02 08:44:04;;;;;;;20.70;10.90;;;;;;;9.25;75.72;100423.77;100062;1288;96350;-70
2023/01/02 08:46:32;;;;;;;16.20;10.50;;;;;;;9.30;75.50;100425.72;100012;1289;138843;-71
2023/01/02 08:49:08;;;;;;;18.90;10.30;;;;;;;9.37;75.31;100419.16;100066;1282;96550;-70
2023/01/02 08:51:35;;;;;;;20.60;11.50;;;;;;;9.44;75.19;100410.29;100069;1289;109223;-71
2023/01/02 08:54:02;;;;;;;20.50;10.50;;;;;;;9.52;74.92;100408.52;99257;1290;1002512;-70
2023/01/02 08:56:31;;;;;;;17.40;9.80;;;;;;;9.58;74.73;100407.00;100123;1287;96441;-71
2023/01/02 08:58:59;;;;;;;21.40;10.90;;;;;;;9.63;74.59;100395.56;100008;1289;137919;-71
2023/01/02 09:01:28;;;;;;;16.10;10.40;;;;;;;9.71;74.41;100394.68;100051;1287;96355;-70
2023/01/02 09:03:56;;;;;;;15.90;9.60;;;;;;;9.77;74.17;100390.53;100051;1291;138319;-71
2023/01/02 09:06:25;;;;;;;21.80;10.40;;;;;;;9.81;73.95;100394.08;100071;1281;107690;-71
2023/01/02 09:08:54;;;;;;;18.80;10.60;;;;;;;9.85;73.81;100395.00;100120;1289;97064;-71
2023/01/02 09:11:25;;;;;;;17.60;10.20;;;;;;;9.90;73.67;100393.50;99989;1294;138139;-72
2023/01/02 09:13:53;;;;;;;15.40;10.20;;;;;;;9.96;73.55;100395.58;100011;1288;96562;-70
2023/01/02 09:16:20;;;;;;;15.60;10.40;;;;;;;10.05;73.21;100401.75;99970;1294;138243;-70
2023/01/02 09:18:47;;;;;;;18.50;10.40;;;;;;;10.14;72.90;100393.33;100045;1294;108940;-70
2023/01/02 09:21:15;;;;;;;17.80;10.60;;;;;;;10.27;72.58;100391.79;100119;1291;97528;-70
2023/01/02 09:23:43;;;;;;;17.00;10.60;;;;;;;10.43;72.34;100402.79;100010;1289;138374;-71
2023/01/02 09:26:12;;;;;;;19.30;10.30;;;;;;;10.61;72.17;100407.30;100139;1289;96454;-71
2023/01/02 09:28:39;;;;;;;15.70;10.60;;;;;;;10.83;71.67;100400.54;100032;1298;138245;-70
2023/01/02 09:31:08;;;;;;;16.60;10.70;;;;;;;11.05;70.84;100397.07;100043;1294;107304;-70
2023/01/02 09:33:39;;;;;;;18.30;11.10;;;;;;;11.26;70.50;100388.39;100148;1294;96377;-70
2023/01/02 09:36:09;;;;;;;19.00;11.30;;;;;;;11.47;69.98;100381.45;100025;1282;138246;-70
2023/01/02 09:38:36;;;;;;;19.90;9.90;;;;;;;11.67;69.34;100378.84;100102;1289;96637;-70
2023/01/02 09:41:09;;;;;;;14.80;9.90;;;;;;;11.81;69.04;100371.39;100060;1294;138242;-71
2023/01/02 09:43:41;;;;;;;19.40;10.60;;;;;;;11.96;68.34;100377.67;100088;1297;107246;-70
2023/01/02 09:46:17;;;;;;;21.70;11.30;;;;;;;12.12;67.90;100377.61;99965;1294;138918;-70
2023/01/02 09:48:44;;;;;;;17.90;10.80;;;;;;;12.28;67.37;100377.57;100183;1294;107807;-70
2023/01/02 09:51:13;;;;;;;19.10;10.60;;;;;;;12.48;67.20;100373.67;100116;1289;96485;-70
2023/01/02 09:53:40;;;;;;;17.90;10.60;;;;;;;12.63;66.28;100369.77;100060;1290;138352;-69
2023/01/02 09:56:13;;;;;;;17.20;10.40;;;;;;;12.68;66.10;100368.70;100138;1291;107372;-71
2023/01/02 09:58:57;;;;;;;20.50;10.60;;;;;;;12.62;64.99;100369.80;100057;1298;138441;-71
2023/01/02 10:01:35;;;;;;;18.50;11.10;;;;;;;12.53;65.05;100363.34;99984;1290;107017;-70
2023/01/02 10:04:15;;;;;;;16.20;10.10;;;;;;;12.49;64.89;100358.46;99962;1292;138397;-69
2023/01/02 10:06:52;;;;;;;18.80;10.80;;;;;;;12.38;65.03;100350.50;100437;1287;109351;-71
2023/01/02 10:09:30;;;;;;;18.10;11.40;;;;;;;12.32;65.34;100341.48;100097;1298;107818;-70
2023/01/02 10:12:04;;;;;;;16.50;11.40;;;;;;;12.29;65.63;100334.27;101502;1280;139103;-70
2023/01/02 10:14:47;;;;;;;18.40;10.50;;;;;;;12.27;65.65;100337.13;100094;1295;108850;-70
2023/01/02 10:17:17;;;;;;;21.20;10.70;;;;;;;12.23;65.56;100335.38;99947;1297;139792;-70
2023/01/02 10:19:49;;;;;;;21.90;10.80;;;;;;;12.21;65.88;100328.48;100155;1294;110974;-70
2023/01/02 10:22:22;;;;;;;18.80;10.80;;;;;;;12.21;65.67;100329.70;99972;1294;138632;-70
2023/01/02 10:24:59;;;;;;;16.00;10.70;;;;;;;12.19;65.82;100331.31;100075;1296;96497;-69
2023/01/02 10:27:32;;;;;;;19.40;10.80;;;;;;;12.18;65.81;100331.53;100166;1294;107149;-71
2023/01/02 10:30:08;;;;;;;20.90;10.80;;;;;;;12.16;65.79;100333.20;100029;1289;138337;-70
2023/01/02 10:32:37;;;;;;;21.50;10.80;;;;;;;12.12;65.72;100330.91;100136;1289;109959;-70
2023/01/02 10:35:16;;;;;;;19.90;11.60;;;;;;;12.06;65.66;100320.67;99935;1289;138402;-70
2023/01/02 10:37:43;;;;;;;17.70;11.30;;;;;;;11.98;65.57;100313.10;100566;1296;96473;-71
2023/01/02 10:40:12;;;;;;;20.00;11.70;;;;;;;11.94;65.69;100313.80;99957;1291;138543;-70
2023/01/02 10:42:40;;;;;;;24.80;10.80;;;;;;;11.90;65.95;100314.14;99964;1296;96474;-70
2023/01/02 10:45:13;;;;;;;18.30;10.50;;;;;;;11.87;65.78;100311.79;100127;1288;110511;-70
2023/01/02 10:47:41;;;;;;;25.00;11.70;;;;;;;11.84;65.90;100312.77;100410;1295;139628;-70
2023/01/02 10:50:14;;;;;;;21.10;10.40;;;;;;;11.80;65.82;100306.61;100082;1297;96349;-70
2023/01/02 10:52:49;;;;;;;21.90;11.60;;;;;;;11.78;66.16;100301.46;99285;1289;1002727;-70
2023/01/02 10:55:30;;;;;;;21.20;11.40;;;;;;;11.77;66.22;100306.17;100099;1288;96579;-70
2023/01/02 10:58:04;;;;;;;18.20;10.80;;;;;;;11.75;66.25;100310.43;100016;1285;138504;-70
2023/01/02 11:00:34;;;;;;;19.00;11.20;;;;;;;11.74;66.23;100311.02;100128;1295;106997;-70
2023/01/02 11:03:06;;;;;;;20.30;11.50;;;;;;;11.72;66.28;100306.56;100148;1294;96374;-70
2023/01/02 11:05:43;;;;;;;19.40;11.20;;;;;;;11.69;66.17;100299.69;100053;1295;138185;-70
2023/01/02 11:08:15;;;;;;;19.90;11.80;;;;;;;11.67;66.36;100296.96;100146;1287;96341;-70
2023/01/02 11:10:44;;;;;;;20.50;10.40;;;;;;;11.67;66.37;100297.15;100020;1295;138230;-71
2023/01/02 11:13:17;;;;;;;21.40;11.30;;;;;;;11.67;66.54;100306.39;100051;1294;106865;-71
2023/01/02 11:15:56;;;;;;;17.10;11.10;;;;;;;11.67;66.45;100295.05;100110;1298;96361;-71